createdAt,value
2018-01-10T00:00:43.512Z,77.34
2018-01-10T00:03:09.952Z,78.48
2018-01-10T00:05:36.369Z,78.49
2018-01-10T00:08:02.748Z,78.24
2018-01-10T00:10:29.168Z,78.80
2018-01-10T00:12:55.576Z,79.51
2018-01-10T00:15:21.987Z,79.93
2018-01-10T00:17:48.379Z,80.11
2018-01-10T00:20:14.803Z,79.23
2018-01-10T00:22:41.196Z,77.12
2018-01-10T00:25:07.596Z,78.77
2018-01-10T00:27:34.024Z,79.84
2018-01-10T00:30:00.455Z,77.58
2018-01-10T00:32:26.848Z,79.04
2018-01-10T00:34:53.287Z,79.55
2018-01-10T00:37:19.708Z,78.97
2018-01-10T00:39:46.131Z,78.11
2018-01-10T00:42:12.553Z,77.67
2018-01-10T00:44:38.916Z,78.79
2018-01-10T00:47:05.318Z,79.71
2018-01-10T00:49:31.720Z,79.60
2018-01-10T00:51:58.131Z,80.00
2018-01-10T00:54:24.476Z,80.31
2018-01-10T00:56:50.925Z,80.50
2018-01-10T00:59:17.359Z,80.61
2018-01-10T01:01:43.756Z,81.08
2018-01-10T01:04:10.180Z,81.02
2018-01-10T01:06:36.759Z,80.79
2018-01-10T01:09:03.260Z,80.86
2018-01-10T01:11:29.610Z,80.25
2018-01-10T01:13:56.008Z,80.24
2018-01-10T01:16:22.431Z,80.58
2018-01-10T01:18:48.804Z,80.92
2018-01-10T01:21:15.214Z,81.13
2018-01-10T01:23:41.563Z,81.61
2018-01-10T01:26:07.997Z,81.92
2018-01-10T01:28:34.403Z,80.03
2018-01-10T01:31:00.775Z,80.63
2018-01-10T01:33:27.164Z,81.35
2018-01-10T01:35:53.684Z,80.14
2018-01-10T01:38:20.141Z,81.09
2018-01-10T01:40:46.573Z,81.27
2018-01-10T01:43:13.100Z,80.27
2018-01-10T01:45:39.444Z,79.60
2018-01-10T01:48:05.832Z,80.22
2018-01-10T01:50:32.259Z,80.82
2018-01-10T01:52:58.770Z,81.14
2018-01-10T01:55:25.200Z,81.39
2018-01-10T01:57:51.592Z,80.93
2018-01-10T02:00:18.035Z,80.23
2018-01-10T02:02:44.471Z,80.60
2018-01-10T02:05:10.908Z,81.27
2018-01-10T02:07:37.315Z,80.63
2018-01-10T02:10:03.680Z,80.57
2018-01-10T02:12:30.091Z,80.25
2018-01-10T02:14:56.479Z,80.76
2018-01-10T02:17:22.887Z,80.78
2018-01-10T02:19:49.301Z,79.28
2018-01-10T02:22:15.767Z,80.43
2018-01-10T02:24:42.212Z,81.25
2018-01-10T02:27:08.640Z,79.39
2018-01-10T02:29:35.080Z,78.59
2018-01-10T02:32:01.500Z,78.96
2018-01-10T02:34:27.927Z,80.35
2018-01-10T02:36:54.347Z,80.88
2018-01-10T02:39:20.711Z,81.02
2018-01-10T02:41:47.134Z,80.57
2018-01-10T02:44:13.607Z,81.05
2018-01-10T02:46:40.011Z,80.48
2018-01-10T02:49:06.440Z,81.17
2018-01-10T02:51:32.851Z,81.34
2018-01-10T02:53:59.233Z,81.44
2018-01-10T02:56:25.652Z,81.21
2018-01-10T02:58:51.998Z,81.30
2018-01-10T03:01:18.415Z,81.49
2018-01-10T03:03:44.865Z,81.43
2018-01-10T03:06:11.258Z,81.42
2018-01-10T03:08:37.699Z,81.48
2018-01-10T03:11:04.164Z,81.54
2018-01-10T03:13:30.597Z,81.66
2018-01-10T03:15:57.004Z,81.85
2018-01-10T03:18:23.447Z,81.81
2018-01-10T03:20:49.820Z,81.94
2018-01-10T03:23:16.304Z,81.97
2018-01-10T03:25:42.721Z,81.93
2018-01-10T03:28:09.112Z,81.07
2018-01-10T03:30:35.551Z,80.62
2018-01-10T03:33:01.988Z,80.94
2018-01-10T03:35:28.571Z,80.38
2018-01-10T03:37:54.992Z,78.81
2018-01-10T03:40:21.392Z,80.01
2018-01-10T03:42:47.856Z,79.70
2018-01-10T03:45:14.263Z,80.07
2018-01-10T03:47:40.623Z,80.64
2018-01-10T03:50:07.012Z,80.88
2018-01-10T03:52:33.452Z,81.00
2018-01-10T03:54:59.928Z,80.15
2018-01-10T03:57:26.343Z,80.84
2018-01-10T03:59:52.780Z,80.37
2018-01-10T04:02:19.187Z,80.62
2018-01-10T04:04:45.555Z,80.99
2018-01-10T04:07:12.015Z,80.92
2018-01-10T04:09:38.511Z,81.15
2018-01-10T04:12:04.935Z,81.36
2018-01-10T04:14:31.387Z,81.71
2018-01-10T04:16:57.788Z,79.86
2018-01-10T04:19:24.173Z,80.79
2018-01-10T04:21:50.576Z,81.25
2018-01-10T04:24:16.987Z,80.14
2018-01-10T04:26:43.468Z,80.60
2018-01-10T04:29:09.899Z,81.28
2018-01-10T04:31:36.335Z,80.98
2018-01-10T04:34:02.904Z,80.59
2018-01-10T04:36:29.307Z,81.27
2018-01-10T04:38:55.693Z,81.56
2018-01-10T04:41:22.166Z,81.49
2018-01-10T04:43:48.607Z,81.15
2018-01-10T04:46:15.072Z,79.81
2018-01-10T04:48:41.631Z,80.54
2018-01-10T04:51:08.107Z,80.97
2018-01-10T04:53:34.515Z,81.37
2018-01-10T04:56:00.875Z,80.96
2018-01-10T04:58:27.306Z,79.27
2018-01-10T05:00:53.679Z,78.86
2018-01-10T05:03:20.203Z,79.72
2018-01-10T05:05:46.620Z,80.23
2018-01-10T05:08:13.023Z,80.58
2018-01-10T05:10:39.464Z,80.53
2018-01-10T05:13:05.811Z,80.42
2018-01-10T05:15:32.259Z,80.48
2018-01-10T05:17:58.748Z,80.09
2018-01-10T05:20:25.242Z,79.88
2018-01-10T05:22:51.703Z,79.68
2018-01-10T05:25:18.155Z,80.44
2018-01-10T05:27:44.532Z,80.85
2018-01-10T05:30:10.899Z,80.75
2018-01-10T05:32:37.328Z,80.38
2018-01-10T05:35:03.700Z,80.73
2018-01-10T05:37:30.135Z,80.92
2018-01-10T05:39:56.556Z,81.11
2018-01-10T05:42:23.074Z,81.11
2018-01-10T05:44:49.527Z,80.83
2018-01-10T05:47:15.894Z,80.88
2018-01-10T05:49:42.383Z,80.53
2018-01-10T05:52:08.800Z,81.25
2018-01-10T05:54:35.156Z,81.44
2018-01-10T05:57:01.693Z,81.48
2018-01-10T05:59:28.179Z,79.97
2018-01-10T06:01:54.610Z,79.63
2018-01-10T06:04:21.009Z,78.76
2018-01-10T06:06:47.411Z,79.58
2018-01-10T06:09:13.855Z,80.19
2018-01-10T06:11:40.297Z,80.83
2018-01-10T06:14:06.713Z,81.19
2018-01-10T06:16:33.131Z,81.19
2018-01-10T06:18:59.588Z,81.42
2018-01-10T06:21:26.108Z,81.89
2018-01-10T06:23:52.556Z,82.22
2018-01-10T06:26:18.967Z,80.38
2018-01-10T06:28:45.387Z,80.88
2018-01-10T06:31:11.748Z,81.20
2018-01-10T06:33:38.143Z,80.67
2018-01-10T06:36:04.561Z,80.97
2018-01-10T06:38:30.967Z,81.44
2018-01-10T06:40:57.399Z,80.99
2018-01-10T06:43:23.831Z,81.48
2018-01-10T06:45:50.208Z,81.63
2018-01-10T06:48:16.751Z,81.33
2018-01-10T06:50:43.141Z,80.98
2018-01-10T06:53:09.660Z,81.25
2018-01-10T06:55:36.110Z,80.40
2018-01-10T06:58:02.563Z,81.11
2018-01-10T07:00:28.919Z,81.43
2018-01-10T07:02:55.403Z,80.94
2018-01-10T07:05:21.807Z,81.29
2018-01-10T07:07:48.227Z,81.27
2018-01-10T07:10:14.668Z,80.99
2018-01-10T07:12:41.036Z,81.14
2018-01-10T07:15:07.407Z,81.09
2018-01-10T07:17:33.803Z,81.27
2018-01-10T07:20:00.335Z,81.30
2018-01-10T07:22:26.715Z,81.40
2018-01-10T07:24:53.176Z,81.30
2018-01-10T07:27:19.571Z,81.21
2018-01-10T07:29:46.008Z,80.42
2018-01-10T07:32:12.439Z,80.91
2018-01-10T07:34:38.867Z,80.16
2018-01-10T07:37:05.324Z,80.96
2018-01-10T07:39:31.746Z,81.16
2018-01-10T07:41:58.328Z,81.10
2018-01-10T07:44:24.726Z,81.36
2018-01-10T07:46:51.143Z,80.71
2018-01-10T07:49:17.649Z,81.15
2018-01-10T07:51:44.071Z,79.73
2018-01-10T07:54:10.507Z,79.46
2018-01-10T07:56:36.945Z,80.62
2018-01-10T07:59:03.297Z,80.80
2018-01-10T08:01:29.722Z,80.78
2018-01-10T08:03:56.195Z,81.13
2018-01-10T08:06:22.631Z,79.79
2018-01-10T08:08:49.130Z,79.91
2018-01-10T08:11:15.475Z,80.68
2018-01-10T08:13:41.894Z,80.73
2018-01-10T08:16:08.268Z,80.87
2018-01-10T08:18:34.780Z,80.86
2018-01-10T08:21:01.212Z,80.71
2018-01-10T08:23:27.664Z,81.46
2018-01-10T08:25:54.075Z,81.39
2018-01-10T08:28:20.528Z,80.49
2018-01-10T08:30:46.927Z,80.82
2018-01-10T08:33:13.395Z,80.02
2018-01-10T08:35:39.810Z,78.82
2018-01-10T08:38:06.283Z,80.00
2018-01-10T08:40:32.688Z,79.45
2018-01-10T08:42:59.200Z,80.35
2018-01-10T08:45:25.600Z,80.01
2018-01-10T08:47:51.994Z,79.67
2018-01-10T08:50:18.420Z,80.23
2018-01-10T08:52:44.854Z,80.74
2018-01-10T08:55:11.539Z,80.55
2018-01-10T08:57:37.923Z,81.71
2018-01-10T09:00:04.400Z,81.68
2018-01-10T09:02:30.811Z,80.43
2018-01-10T09:04:57.155Z,78.89
2018-01-10T09:07:23.527Z,79.63
2018-01-10T09:09:49.915Z,79.72
2018-01-10T09:12:16.428Z,80.37
2018-01-10T09:14:42.867Z,80.27
2018-01-10T09:17:09.255Z,80.69
2018-01-10T09:19:35.772Z,81.08
2018-01-10T09:22:02.224Z,80.18
2018-01-10T09:24:28.574Z,79.86
2018-01-10T09:26:54.993Z,80.00
2018-01-10T09:29:21.573Z,80.41
2018-01-10T09:31:47.958Z,78.29
2018-01-10T09:34:14.332Z,79.70
2018-01-10T09:36:40.776Z,79.70
2018-01-10T09:39:07.187Z,79.92
2018-01-10T09:41:33.598Z,78.55
2018-01-10T09:44:00.136Z,78.22
2018-01-10T09:46:26.647Z,79.47
2018-01-10T09:48:53.019Z,79.70
2018-01-10T09:51:19.660Z,80.02
2018-01-10T09:53:46.056Z,79.06
2018-01-10T09:56:12.483Z,79.82
2018-01-10T09:58:38.907Z,79.96
2018-01-10T10:01:05.319Z,77.51
2018-01-10T10:03:31.731Z,78.84
2018-01-10T10:05:58.243Z,78.29
2018-01-10T10:08:24.639Z,77.38
2018-01-10T10:10:51.004Z,79.01
2018-01-10T10:13:17.484Z,77.27
2018-01-10T10:15:43.909Z,77.63
2018-01-10T10:21:29.120Z,77.16
2018-01-10T10:23:55.507Z,76.71
2018-01-10T10:26:21.910Z,78.13
2018-01-10T10:28:48.379Z,76.79
2018-01-10T10:31:14.767Z,75.47
2018-01-10T10:33:41.179Z,76.16
2018-01-10T10:36:07.558Z,76.46
2018-01-10T10:38:34.012Z,76.65
2018-01-10T10:41:00.484Z,76.10
2018-01-10T10:43:26.976Z,76.80
2018-01-10T10:45:53.390Z,78.04
2018-01-10T10:48:19.850Z,75.57
2018-01-10T10:50:46.284Z,75.06
2018-01-10T10:53:12.771Z,75.92
2018-01-10T10:55:39.242Z,76.93
2018-01-10T10:58:05.686Z,75.25
2018-01-10T11:00:32.039Z,77.71
2018-01-10T11:02:58.488Z,78.85
2018-01-10T11:05:24.919Z,77.63
2018-01-10T11:07:51.407Z,75.87
2018-01-10T11:10:17.771Z,75.00
2018-01-10T11:12:44.228Z,75.35
2018-01-10T11:15:10.692Z,76.34
2018-01-10T11:17:37.131Z,76.17
2018-01-10T11:20:03.632Z,78.33
2018-01-10T11:22:30.040Z,78.42
2018-01-10T11:24:56.496Z,77.04
2018-01-10T11:27:22.988Z,75.27
2018-01-10T11:29:49.497Z,77.20
2018-01-10T11:32:15.953Z,78.53
2018-01-10T11:34:42.288Z,79.53
2018-01-10T11:37:08.759Z,78.94
2018-01-10T11:39:35.237Z,78.28
2018-01-10T11:42:01.611Z,76.96
2018-01-10T11:44:28.053Z,75.52
2018-01-10T11:46:54.504Z,75.98
2018-01-10T11:49:20.969Z,78.78
2018-01-10T11:51:47.298Z,79.79
2018-01-10T11:54:13.757Z,79.34
2018-01-10T11:56:40.236Z,81.42
2018-01-10T11:59:06.672Z,78.45
2018-01-10T12:01:33.155Z,76.49
2018-01-10T12:03:59.678Z,77.89
2018-01-10T12:06:26.071Z,76.08
2018-01-10T12:08:52.511Z,75.77
2018-01-10T12:11:18.923Z,75.00
2018-01-10T12:13:45.360Z,76.02
2018-01-10T12:16:11.855Z,75.96
2018-01-10T12:18:38.315Z,77.10
2018-01-10T12:21:04.714Z,76.71
2018-01-10T12:23:31.263Z,77.40
2018-01-10T12:25:57.745Z,78.08
2018-01-10T12:28:24.139Z,77.82
2018-01-10T12:30:50.539Z,79.98
2018-01-10T12:33:17.069Z,78.96
2018-01-10T12:35:43.476Z,79.24
2018-01-10T12:38:09.911Z,77.54
2018-01-10T12:40:36.450Z,78.35
2018-01-10T12:43:02.905Z,77.51
2018-01-10T12:45:29.419Z,78.45
2018-01-10T12:47:55.928Z,77.03
2018-01-10T12:50:22.393Z,78.98
2018-01-10T12:52:48.923Z,77.94
2018-01-10T12:55:15.432Z,77.90
2018-01-10T12:57:41.960Z,76.98
2018-01-10T13:00:08.453Z,76.64
2018-01-10T13:02:34.872Z,75.66
2018-01-10T13:05:01.257Z,77.79
2018-01-10T13:07:27.760Z,77.71
2018-01-10T13:09:54.144Z,77.66
2018-01-10T13:12:20.523Z,77.85
2018-01-10T13:14:46.923Z,77.31
2018-01-10T13:17:13.356Z,77.77
2018-01-10T13:19:39.712Z,76.42
2018-01-10T13:22:06.209Z,77.36
2018-01-10T13:24:32.608Z,77.02
2018-01-10T13:26:58.988Z,76.72
2018-01-10T13:29:25.508Z,76.06
2018-01-10T13:31:51.912Z,74.90
2018-01-10T13:34:18.260Z,75.14
2018-01-10T13:36:44.825Z,77.83
2018-01-10T13:39:11.263Z,77.12
2018-01-10T13:41:37.607Z,75.83
2018-01-10T13:44:04.095Z,75.04
2018-01-10T13:46:30.724Z,75.78
2018-01-10T13:48:57.116Z,76.65
2018-01-10T13:51:23.495Z,77.31
2018-01-10T13:53:49.942Z,76.42
2018-01-10T13:56:16.391Z,75.06
2018-01-10T13:58:42.802Z,75.39
2018-01-10T14:01:09.263Z,74.55
2018-01-10T14:03:35.723Z,74.97
2018-01-10T14:06:02.155Z,75.52
2018-01-10T14:08:28.520Z,75.94
2018-01-10T14:10:54.992Z,76.62
2018-01-10T14:13:21.428Z,75.05
2018-01-10T14:15:47.840Z,76.70
2018-01-10T14:18:14.216Z,77.24
2018-01-10T14:20:40.627Z,75.29
2018-01-10T14:23:07.155Z,74.73
2018-01-10T14:25:33.551Z,75.45
2018-01-10T14:27:59.899Z,75.42
2018-01-10T14:30:26.363Z,74.94
2018-01-10T14:32:52.813Z,76.68
2018-01-10T14:35:19.224Z,74.87
2018-01-10T14:37:45.604Z,75.67
2018-01-10T14:40:12.012Z,74.99
2018-01-10T14:42:38.428Z,75.16
2018-01-10T14:45:04.884Z,74.55
2018-01-10T14:47:31.292Z,77.02
2018-01-10T14:49:57.820Z,78.11
2018-01-10T14:52:24.420Z,76.86
2018-01-10T14:54:50.917Z,77.97
2018-01-10T14:57:17.428Z,76.07
2018-01-10T14:59:43.896Z,74.93
2018-01-10T15:02:10.348Z,76.92
2018-01-10T15:04:36.804Z,78.43
2018-01-10T15:07:03.243Z,78.90
2018-01-10T15:09:29.648Z,77.80
2018-01-10T15:11:56.075Z,78.99
2018-01-10T15:14:22.487Z,77.67
2018-01-10T15:16:48.880Z,77.56
2018-01-10T15:19:15.288Z,76.45
2018-01-10T15:21:41.667Z,76.31
2018-01-10T15:24:08.139Z,75.42
2018-01-10T15:26:34.523Z,76.96
2018-01-10T15:29:00.904Z,78.35
2018-01-10T15:31:27.364Z,77.95
2018-01-10T15:33:53.781Z,77.33
2018-01-10T15:36:20.305Z,77.11
2018-01-10T15:38:46.726Z,75.60
2018-01-10T15:41:13.124Z,74.86
2018-01-10T15:43:39.536Z,77.13
2018-01-10T15:46:05.940Z,77.92
2018-01-10T15:48:32.391Z,78.43
2018-01-10T15:50:58.784Z,78.82
2018-01-10T15:53:25.187Z,78.89
2018-01-10T15:55:51.605Z,78.55
2018-01-10T15:58:18.104Z,79.18
2018-01-10T16:00:44.485Z,79.47
2018-01-10T16:03:10.871Z,79.70
2018-01-10T16:05:37.311Z,78.96
2018-01-10T16:08:03.691Z,79.13
2018-01-10T16:10:30.252Z,79.43
2018-01-10T16:12:56.759Z,79.57
2018-01-10T16:15:23.216Z,79.65
2018-01-10T16:17:49.563Z,79.34
2018-01-10T16:20:16.036Z,78.62
2018-01-10T16:22:42.384Z,79.04
2018-01-10T16:25:08.783Z,79.56
2018-01-10T16:27:35.189Z,79.98
2018-01-10T16:30:01.601Z,80.26
2018-01-10T16:32:28.052Z,80.19
2018-01-10T16:34:54.452Z,80.20
2018-01-10T16:37:20.963Z,80.10
2018-01-10T16:39:47.339Z,79.50
2018-01-10T16:42:13.680Z,79.98
2018-01-10T16:44:40.087Z,80.27
2018-01-10T16:47:06.459Z,80.47
2018-01-10T16:49:32.923Z,80.88
2018-01-10T16:51:59.323Z,80.62
2018-01-10T16:54:25.780Z,80.59
2018-01-10T16:56:52.156Z,80.08
2018-01-10T16:59:18.639Z,80.19
2018-01-10T17:01:45.142Z,80.08
2018-01-10T17:04:11.506Z,80.44
2018-01-10T17:06:38.072Z,80.58
2018-01-10T17:09:04.524Z,80.46
2018-01-10T17:11:31.037Z,80.94
2018-01-10T17:13:57.444Z,81.01
2018-01-10T17:16:23.946Z,80.69
2018-01-10T17:18:50.312Z,80.82
2018-01-10T17:21:16.683Z,81.39
2018-01-10T17:23:43.179Z,79.43
2018-01-10T17:26:09.560Z,79.73
2018-01-10T17:28:35.915Z,78.28
2018-01-10T17:31:02.324Z,79.17
2018-01-10T17:33:28.844Z,79.63
2018-01-10T17:35:55.256Z,79.33
2018-01-10T17:38:21.593Z,79.21
2018-01-10T17:40:47.999Z,78.45
2018-01-10T17:43:14.437Z,79.89
2018-01-10T17:45:40.811Z,79.11
2018-01-10T17:48:07.537Z,79.56
2018-01-10T17:50:34.012Z,79.86
2018-01-10T17:53:00.449Z,79.90
2018-01-10T17:55:26.931Z,80.24
2018-01-10T17:57:53.348Z,79.59
2018-01-10T18:00:19.704Z,78.01
2018-01-10T18:02:46.168Z,79.43
2018-01-10T18:05:12.624Z,80.02
2018-01-10T18:07:38.996Z,80.19
2018-01-10T18:10:05.440Z,80.25
2018-01-10T18:12:31.822Z,79.73
2018-01-10T18:14:58.287Z,80.23
2018-01-10T18:17:24.656Z,80.37
2018-01-10T18:19:51.083Z,80.40
2018-01-10T18:22:17.467Z,79.46
2018-01-10T18:24:43.836Z,80.00
2018-01-10T18:27:10.312Z,79.78
2018-01-10T18:29:36.713Z,79.22
2018-01-10T18:32:03.200Z,79.67
2018-01-10T18:34:29.618Z,79.70
2018-01-10T18:36:56.036Z,80.05
2018-01-10T18:39:22.395Z,77.99
2018-01-10T18:41:49.497Z,76.53
2018-01-10T18:44:16.452Z,75.78
2018-01-10T18:46:42.798Z,76.96
2018-01-10T18:49:09.264Z,77.54
2018-01-10T18:51:35.716Z,79.12
2018-01-10T18:54:02.176Z,79.82
2018-01-10T18:56:28.573Z,79.88
2018-01-10T18:58:54.996Z,78.81
2018-01-10T19:01:21.380Z,78.95
2018-01-10T19:03:47.900Z,79.38
2018-01-10T19:06:14.436Z,80.13
2018-01-10T19:08:40.799Z,80.31
2018-01-10T19:11:07.203Z,80.45
2018-01-10T19:13:33.616Z,80.03
2018-01-10T19:15:59.972Z,79.62
2018-01-10T19:18:26.405Z,79.83
2018-01-10T19:20:52.792Z,80.24
2018-01-10T19:23:19.252Z,79.74
2018-01-10T19:25:45.756Z,79.80
2018-01-10T19:28:12.132Z,79.73
2018-01-10T19:30:38.548Z,78.63
2018-01-10T19:33:04.950Z,79.48
2018-01-10T19:35:31.388Z,78.98
2018-01-10T19:37:57.752Z,79.97
2018-01-10T19:40:24.227Z,78.98
2018-01-10T19:42:50.656Z,80.13
2018-01-10T19:45:17.048Z,79.03
2018-01-10T19:47:43.393Z,80.05
2018-01-10T19:50:09.899Z,80.36
2018-01-10T19:52:36.332Z,80.06
2018-01-10T19:55:02.901Z,79.57
2018-01-10T19:57:29.320Z,80.16
2018-01-10T19:59:55.772Z,80.33
2018-01-10T20:02:22.155Z,80.33
2018-01-10T20:04:48.595Z,80.52
2018-01-10T20:07:15.037Z,79.61
2018-01-10T20:09:41.435Z,80.43
2018-01-10T20:12:07.807Z,80.77
2018-01-10T20:14:34.297Z,81.18
2018-01-10T20:17:00.660Z,81.38
2018-01-10T20:19:27.032Z,78.80
2018-01-10T20:21:53.452Z,80.07
2018-01-10T20:24:19.864Z,80.08
2018-01-10T20:26:46.316Z,79.79
2018-01-10T20:29:12.768Z,79.30
2018-01-10T20:31:39.151Z,80.01
2018-01-10T20:34:05.555Z,78.95
2018-01-10T20:36:32.003Z,79.83
2018-01-10T20:38:58.793Z,80.16
2018-01-10T20:41:25.375Z,80.24
2018-01-10T20:43:51.772Z,80.38
2018-01-10T20:46:18.173Z,80.49
2018-01-10T20:48:45.787Z,80.36
2018-01-10T20:51:12.551Z,80.25
2018-01-10T20:53:39.250Z,80.50
2018-01-10T20:56:05.933Z,80.72
2018-01-10T20:58:32.762Z,80.95
2018-01-10T21:00:59.458Z,81.28
2018-01-10T21:03:26.121Z,81.37
2018-01-10T21:05:52.680Z,81.28
2018-01-10T21:08:19.283Z,81.35
2018-01-10T21:10:45.655Z,81.31
2018-01-10T21:13:12.306Z,81.11
2018-01-10T21:15:38.716Z,81.12
2018-01-10T21:18:05.112Z,81.17
2018-01-10T21:20:31.457Z,79.76
2018-01-10T21:22:57.891Z,79.64
2018-01-10T21:25:24.308Z,80.30
2018-01-10T21:27:50.837Z,79.40
2018-01-10T21:30:17.236Z,80.32
2018-01-10T21:32:43.693Z,80.42
2018-01-10T21:35:10.125Z,80.61
2018-01-10T21:37:36.610Z,80.99
2018-01-10T21:40:03.018Z,81.14
2018-01-10T21:42:29.452Z,81.04
2018-01-10T21:44:55.915Z,81.10
2018-01-10T21:47:22.331Z,81.12
2018-01-10T21:49:48.725Z,81.23
2018-01-10T21:52:15.067Z,81.33
2018-01-10T21:54:41.515Z,81.22
2018-01-10T21:57:07.896Z,81.18
2018-01-10T21:59:34.274Z,80.99
2018-01-10T22:02:00.689Z,80.18
2018-01-10T22:04:27.050Z,80.74
2018-01-10T22:06:53.452Z,80.81
2018-01-10T22:09:19.959Z,80.78
2018-01-10T22:11:46.335Z,80.95
2018-01-10T22:14:12.816Z,81.02
2018-01-10T22:16:39.276Z,80.90
2018-01-10T22:19:05.669Z,81.18
2018-01-10T22:21:32.031Z,81.20
2018-01-10T22:23:58.443Z,81.19
2018-01-10T22:26:24.803Z,81.16
2018-01-10T22:28:51.214Z,81.00
2018-01-10T22:31:17.743Z,80.38
2018-01-10T22:33:44.140Z,79.24
2018-01-10T22:36:10.523Z,80.30
2018-01-10T22:38:36.972Z,80.87
2018-01-10T22:41:03.392Z,81.01
2018-01-10T22:43:29.823Z,80.79
2018-01-10T22:45:56.320Z,80.82
2018-01-10T22:48:22.731Z,81.09
2018-01-10T22:50:49.131Z,79.19
2018-01-10T22:53:15.598Z,80.18
2018-01-10T22:55:41.994Z,80.58
2018-01-10T22:58:08.348Z,80.62
2018-01-10T23:00:34.812Z,80.87
2018-01-10T23:03:01.212Z,80.86
2018-01-10T23:05:27.648Z,80.95
2018-01-10T23:07:54.149Z,80.86
2018-01-10T23:10:20.531Z,80.92
2018-01-10T23:12:46.893Z,80.84
2018-01-10T23:15:13.508Z,80.90
2018-01-10T23:17:39.911Z,80.57
2018-01-10T23:20:06.361Z,80.79
2018-01-10T23:22:32.763Z,80.82
2018-01-10T23:24:59.131Z,80.89
2018-01-10T23:27:25.540Z,80.79
2018-01-10T23:29:51.988Z,80.91
2018-01-10T23:32:18.396Z,80.58
2018-01-10T23:34:44.865Z,80.75
2018-01-10T23:37:11.236Z,80.93
2018-01-10T23:39:37.579Z,80.81
2018-01-10T23:42:03.972Z,80.93
2018-01-10T23:44:30.405Z,81.02
2018-01-10T23:46:56.884Z,81.11
2018-01-10T23:49:23.320Z,80.83
2018-01-10T23:51:49.675Z,80.81
2018-01-10T23:54:16.098Z,80.88
2018-01-10T23:56:42.515Z,80.46
2018-01-10T23:59:08.971Z,80.68
